Maunabo, Puerto Rico
Current Conditions -  °F | °C
As of 4:53 AM on Saturday 22 Nov 2014 (Local Time) from TJNR Reporting Station
Few Clouds Few Clouds  
Wind Chill: 78°   Ceiling: Unl
Heat Index: 81°   Visibility: 10mi
Dew Point: 74°   Wind: 10mph
Humidity: 87%   Direction: 80°E
Pressure: 29.99"   Gusts: NA
Location:  18.01°N, 65.9°W
Report Text: TJNR 220853Z AUTO 08009KT 10SM FEW018 26/23 A2999 RMK AO2 SLP154 60004 T02560233 56008 $
Loading
Personal Weather Stations






























Interactive Weather Map New forecast layout! Learn more

10-Day Weather Forecast

Advertisements
Track Severe Weather on mobile